createdAt,value
2022-08-09T10:13:45.314Z,40.68
2022-08-09T10:16:58.201Z,41.68
2022-08-09T10:19:08.085Z,41.67
2022-08-09T10:21:57.185Z,40.75
2022-08-09T10:25:23.045Z,41.39
2022-08-09T10:28:12.978Z,42.32
2022-08-09T10:34:08.829Z,41.57
2022-08-09T10:36:53.875Z,38.43
2022-08-09T10:39:49.236Z,39.01
2022-08-09T10:42:31.856Z,36.48
2022-08-09T10:45:31.779Z,36.46
2022-08-09T10:48:31.342Z,36.78
2022-08-09T10:51:29.551Z,35.82
2022-08-09T10:54:17.856Z,35.57
2022-08-09T10:57:10.801Z,35.56
2022-08-09T11:00:01.654Z,34.69
2022-08-09T11:03:15.623Z,34.18
2022-08-09T11:05:38.687Z,33.16
2022-08-09T11:08:47.585Z,32.45
2022-08-09T11:12:02.159Z,32.29
2022-08-09T11:15:11.686Z,33.11
2022-08-09T11:18:03.906Z,33.68
2022-08-09T11:20:49.780Z,32.69
2022-08-09T11:23:57.175Z,31.77
2022-08-09T11:26:49.413Z,32.76
2022-08-09T11:30:06.015Z,34.10
2022-08-09T11:32:48.242Z,34.42
2022-08-09T11:35:57.754Z,32.38
2022-08-09T11:38:45.625Z,32.94
2022-08-09T11:41:37.824Z,34.05
2022-08-09T11:44:24.095Z,34.67
2022-08-09T11:47:14.460Z,33.77
2022-08-09T11:50:56.077Z,33.52
2022-08-09T11:53:58.622Z,32.62
2022-08-09T11:56:02.384Z,31.62
2022-08-09T11:58:55.897Z,33.11
2022-08-09T12:02:34.199Z,34.11
2022-08-09T12:04:38.023Z,35.25
2022-08-09T12:07:22.538Z,36.27
2022-08-09T12:10:31.757Z,37.01
2022-08-09T12:13:03.750Z,36.33
2022-08-09T12:15:52.573Z,34.19
2022-08-09T12:18:41.897Z,32.96
2022-08-09T12:21:38.540Z,34.48
2022-08-09T12:24:25.797Z,35.80
2022-08-09T12:29:11.579Z,36.83
2022-08-09T12:30:36.506Z,37.31
2022-08-09T12:33:04.586Z,37.01
2022-08-09T12:35:53.801Z,37.97
2022-08-09T12:38:42.899Z,37.93
2022-08-09T12:41:39.010Z,36.31
2022-08-09T12:44:24.553Z,34.87
2022-08-09T12:47:12.482Z,33.79
2022-08-09T12:50:19.962Z,34.19
2022-08-09T12:53:09.329Z,35.11
2022-08-09T12:56:36.841Z,34.46
2022-08-09T12:59:14.038Z,33.82
2022-08-09T13:02:07.191Z,32.81
2022-08-09T13:05:04.618Z,31.87
2022-08-09T13:08:14.777Z,30.52
2022-08-09T13:11:23.185Z,29.10
2022-08-09T13:16:49.411Z,26.66
2022-08-09T13:20:10.276Z,27.16
2022-08-09T13:23:01.253Z,28.19
2022-08-09T13:25:23.290Z,29.81
2022-08-09T13:28:34.454Z,30.72
2022-08-09T13:32:13.482Z,31.24
2022-08-09T13:33:59.929Z,32.74
2022-08-09T13:36:49.240Z,33.83
2022-08-09T13:41:50.540Z,34.58
2022-08-09T13:42:31.942Z,34.79
2022-08-09T13:45:20.801Z,35.73
2022-08-09T13:48:10.831Z,36.30
2022-08-09T13:50:57.304Z,36.25
2022-08-09T13:53:45.705Z,36.63
2022-08-09T13:56:32.890Z,36.12
2022-08-09T13:59:20.320Z,36.96
2022-08-09T14:02:09.995Z,37.44
2022-08-09T14:04:59.704Z,37.44
2022-08-09T14:07:46.521Z,34.28
2022-08-09T14:10:46.277Z,33.27
2022-08-09T14:14:15.718Z,33.65
2022-08-09T14:16:28.167Z,35.20
2022-08-09T14:19:10.256Z,36.00
2022-08-09T14:21:58.090Z,37.26
2022-08-09T14:24:47.126Z,38.54
2022-08-09T14:27:56.695Z,39.48
2022-08-09T14:30:37.327Z,39.86
2022-08-09T14:33:13.194Z,40.13
2022-08-09T14:36:19.746Z,40.63
2022-08-09T14:38:52.686Z,40.55
2022-08-09T14:41:42.000Z,40.75
2022-08-09T14:44:32.753Z,40.32
2022-08-09T14:47:39.711Z,40.37
2022-08-09T14:50:08.398Z,39.93
2022-08-09T14:52:57.660Z,39.37
2022-08-09T14:55:49.866Z,38.79
2022-08-09T14:58:37.632Z,38.10
2022-08-09T15:01:27.006Z,37.70
2022-08-09T15:04:14.385Z,37.68
2022-08-09T15:07:02.106Z,37.68
2022-08-09T15:10:04.577Z,37.55
2022-08-09T15:12:38.880Z,37.16
2022-08-09T15:15:28.545Z,37.03
2022-08-09T15:18:16.264Z,37.20
2022-08-09T15:21:55.402Z,37.12
2022-08-09T15:24:02.198Z,37.58
2022-08-09T15:26:46.411Z,37.28
2022-08-09T15:30:57.361Z,36.72
2022-08-09T15:32:28.652Z,36.47
2022-08-09T15:35:18.149Z,36.33
2022-08-09T15:38:11.218Z,35.79
2022-08-09T15:40:50.936Z,35.57
2022-08-09T15:43:40.721Z,35.30
2022-08-09T15:46:34.278Z,35.81
2022-08-09T15:49:22.375Z,35.06
2022-08-09T15:52:09.361Z,31.55
2022-08-09T15:54:58.577Z,28.95
2022-08-09T15:57:51.476Z,27.31
2022-08-09T16:00:39.088Z,26.76
2022-08-09T16:03:38.296Z,25.88
2022-08-09T16:06:16.137Z,25.30
2022-08-09T16:09:06.169Z,25.17
2022-08-09T16:11:57.203Z,24.96
2022-08-09T16:14:42.536Z,24.20
2022-08-09T16:17:30.159Z,23.76
2022-08-09T16:20:18.992Z,23.15
2022-08-09T16:23:07.936Z,22.98
2022-08-09T16:26:01.045Z,23.17
2022-08-09T16:28:46.368Z,23.61
2022-08-09T16:32:10.475Z,25.51
2022-08-09T16:34:23.675Z,27.89
2022-08-09T16:37:11.870Z,30.22
2022-08-09T16:40:04.917Z,32.18
2022-08-09T16:42:49.777Z,33.74
2022-08-09T16:45:43.819Z,35.16
2022-08-09T16:48:39.465Z,36.15
2022-08-09T16:51:17.051Z,36.92
2022-08-09T16:54:27.871Z,37.67
2022-08-09T16:56:53.601Z,38.28
2022-08-09T16:59:44.141Z,38.67
2022-08-09T17:02:31.315Z,39.15
2022-08-09T17:05:19.991Z,38.78
2022-08-09T17:08:42.775Z,39.14
2022-08-09T17:10:56.913Z,39.38
2022-08-09T17:13:45.180Z,39.65
2022-08-09T17:16:38.222Z,39.94
2022-08-09T17:19:22.015Z,40.57
2022-08-09T17:22:10.473Z,41.37
2022-08-09T17:25:03.741Z,41.55
2022-08-09T17:27:49.387Z,41.93
2022-08-09T17:30:37.690Z,42.56
2022-08-09T17:33:26.569Z,43.16
2022-08-09T17:36:17.300Z,43.38
2022-08-09T17:39:06.591Z,43.79
2022-08-09T17:41:56.177Z,44.23
2022-08-09T17:44:49.323Z,45.06
2022-08-09T17:47:49.757Z,45.81
2022-08-09T17:50:36.662Z,46.60
2022-08-09T17:53:22.351Z,47.18
2022-08-09T17:56:09.551Z,47.85
2022-08-09T17:58:59.892Z,48.24
2022-08-09T18:02:07.978Z,48.63
2022-08-09T18:04:37.265Z,49.26
2022-08-09T18:07:26.930Z,49.75
2022-08-09T18:10:16.344Z,49.98
2022-08-09T18:13:53.620Z,50.46
2022-08-09T18:16:07.766Z,50.86
2022-08-09T18:18:49.197Z,50.80
2022-08-09T18:21:41.589Z,50.95
2022-08-09T18:24:27.513Z,51.33
2022-08-09T18:27:49.394Z,51.71
2022-08-09T18:30:41.749Z,52.44
2022-08-09T18:32:58.370Z,53.87
2022-08-09T18:35:58.176Z,55.19
2022-08-09T18:38:36.907Z,55.94
2022-08-09T18:41:29.455Z,56.06
2022-08-09T18:44:13.968Z,56.64
2022-08-09T18:47:05.402Z,57.04
2022-08-09T18:49:54.985Z,57.87
2022-08-09T18:52:46.388Z,58.49
2022-08-09T18:55:56.098Z,59.47
2022-08-09T18:58:32.208Z,60.15
2022-08-09T19:01:17.464Z,60.79
2022-08-09T19:04:09.472Z,61.50
2022-08-09T19:06:58.306Z,62.31
2022-08-09T19:10:14.928Z,62.44
2022-08-09T19:12:40.457Z,62.54
2022-08-09T19:15:31.353Z,62.80
2022-08-09T19:18:33.819Z,62.96
2022-08-09T19:21:11.802Z,63.08
2022-08-09T19:24:39.577Z,62.59
2022-08-09T19:26:51.712Z,61.96
2022-08-09T19:30:25.174Z,61.53
2022-08-09T19:32:29.658Z,61.26
2022-08-09T19:35:18.825Z,61.30
2022-08-09T19:38:11.002Z,61.60
2022-08-09T19:41:05.499Z,62.20
2022-08-09T19:44:01.242Z,62.47
2022-08-09T19:46:50.698Z,62.74
2022-08-09T19:50:09.443Z,63.44
2022-08-09T19:52:23.384Z,64.70
2022-08-09T19:55:13.219Z,66.00
2022-08-09T19:58:04.833Z,67.43
2022-08-09T20:00:52.043Z,68.67
2022-08-09T20:04:18.057Z,69.50
2022-08-09T20:06:31.451Z,69.37
2022-08-09T20:09:44.662Z,69.53
2022-08-09T20:12:27.259Z,70.04
2022-08-09T20:16:34.768Z,70.96
2022-08-09T20:18:00.257Z,71.98
2022-08-09T20:20:50.318Z,72.19
2022-08-09T20:23:39.056Z,72.36
2022-08-09T20:26:31.434Z,72.74
2022-08-09T20:29:19.266Z,73.69
2022-08-09T20:32:29.291Z,74.58
2022-08-09T20:35:02.275Z,75.37
2022-08-09T20:38:20.349Z,75.91
2022-08-09T20:40:41.060Z,76.85
2022-08-09T20:43:32.377Z,77.92
2022-08-09T20:46:42.122Z,78.68
2022-08-09T20:49:10.331Z,79.62
2022-08-09T20:51:58.400Z,80.18
2022-08-09T20:54:52.644Z,80.53
2022-08-09T20:58:05.304Z,80.80
2022-08-09T21:00:32.132Z,80.76
2022-08-09T21:03:22.030Z,81.28
2022-08-09T21:06:09.552Z,81.72
2022-08-09T21:09:00.020Z,81.81
2022-08-09T21:14:40.545Z,82.55
2022-08-09T21:18:21.572Z,82.39
2022-08-09T21:20:23.052Z,82.58
2022-08-09T21:23:09.204Z,82.71
2022-08-09T21:25:59.901Z,82.85
2022-08-09T21:28:55.446Z,82.82
2022-08-09T21:31:49.226Z,82.96
2022-08-09T21:34:29.018Z,83.01
2022-08-09T21:37:18.148Z,83.11
2022-08-09T21:40:04.034Z,83.45
2022-08-09T21:42:54.261Z,83.47
2022-08-09T21:45:41.984Z,83.64
2022-08-09T21:48:30.994Z,83.58
2022-08-09T21:51:24.559Z,83.54
2022-08-09T21:54:10.161Z,83.29
2022-08-09T21:56:59.554Z,82.95
2022-08-09T21:59:46.813Z,82.79
2022-08-09T22:02:40.244Z,82.97
2022-08-09T22:05:37.048Z,83.33
2022-08-09T22:08:32.019Z,83.97
2022-08-09T22:12:05.668Z,84.15
2022-08-09T22:14:14.880Z,84.11
2022-08-09T22:17:02.178Z,84.17
2022-08-09T22:19:59.774Z,84.13
2022-08-09T22:22:42.251Z,84.28
2022-08-09T22:26:08.138Z,84.71
2022-08-09T22:28:21.135Z,84.99
2022-08-09T22:31:08.562Z,85.00
2022-08-09T22:33:56.425Z,85.71
2022-08-09T22:36:45.998Z,86.75
2022-08-09T22:39:56.021Z,86.75
2022-08-09T22:42:23.793Z,86.92
2022-08-09T22:48:11.987Z,87.25
2022-08-09T22:48:16.236Z,87.17
2022-08-09T22:50:53.074Z,87.31
2022-08-09T22:53:58.505Z,87.14
2022-08-09T22:56:31.377Z,87.26
2022-08-09T22:59:56.049Z,87.39
2022-08-09T23:02:07.146Z,87.63
2022-08-09T23:04:57.047Z,87.74
2022-08-09T23:08:21.944Z,87.79
2022-08-09T23:10:51.576Z,87.72
2022-08-09T23:13:39.081Z,88.04
2022-08-09T23:16:26.041Z,88.90
2022-08-09T23:19:13.264Z,89.52
2022-08-09T23:22:01.017Z,89.62
2022-08-09T23:24:48.683Z,89.52
2022-08-09T23:27:36.800Z,89.27
2022-08-09T23:30:25.769Z,88.84
2022-08-09T23:33:13.587Z,88.59
2022-08-09T23:36:06.456Z,88.67
2022-08-09T23:38:50.161Z,88.72
2022-08-09T23:41:38.243Z,88.87
2022-08-09T23:44:25.816Z,89.62
2022-08-09T23:47:13.146Z,89.78
2022-08-09T23:50:00.445Z,89.65
2022-08-09T23:52:47.882Z,89.61
2022-08-09T23:55:37.966Z,89.53
2022-08-09T23:58:29.717Z,88.95
